createdAt,value
2023-03-20T00:00:36.952Z,45
2023-03-20T00:02:36.705Z,45.1
2023-03-20T00:04:36.828Z,44.7
2023-03-20T00:06:36.673Z,44.8
2023-03-20T00:08:36.697Z,44.6
2023-03-20T00:10:36.706Z,44.6
2023-03-20T00:12:36.701Z,44.7
2023-03-20T00:14:36.624Z,44.7
2023-03-20T00:16:36.636Z,44.9
2023-03-20T00:18:36.618Z,45
2023-03-20T00:20:36.793Z,45.8
2023-03-20T00:22:36.642Z,45.7
2023-03-20T00:24:36.682Z,45.3
2023-03-20T00:26:36.686Z,45.6
2023-03-20T00:28:36.608Z,45.4
2023-03-20T00:30:36.670Z,45.4
2023-03-20T00:32:36.665Z,45.6
2023-03-20T00:34:36.635Z,45.5
2023-03-20T00:36:36.616Z,45.7
2023-03-20T00:38:36.610Z,45.7
2023-03-20T00:40:36.670Z,45.8
2023-03-20T00:42:36.601Z,45.7
2023-03-20T00:44:36.627Z,45.8
2023-03-20T00:46:36.646Z,46.1
2023-03-20T00:48:36.595Z,46
2023-03-20T00:50:36.643Z,46.1
2023-03-20T00:52:36.578Z,46.1
2023-03-20T00:54:36.633Z,46.1
2023-03-20T00:56:36.586Z,46.2
2023-03-20T00:58:36.573Z,46.3
2023-03-20T01:00:36.632Z,46.3
2023-03-20T01:02:36.600Z,46.3
2023-03-20T01:04:36.626Z,46.4
2023-03-20T01:06:36.663Z,46.4
2023-03-20T01:08:36.601Z,46.5
2023-03-20T01:10:36.590Z,46.6
2023-03-20T01:12:38.061Z,46.5
2023-03-20T01:14:36.608Z,46.6
2023-03-20T01:16:36.623Z,46.7
2023-03-20T01:18:36.591Z,46.7
2023-03-20T01:20:36.560Z,46.7
2023-03-20T01:22:36.536Z,47
2023-03-20T01:24:38.179Z,46.8
2023-03-20T01:26:36.547Z,47
2023-03-20T01:28:36.541Z,47
2023-03-20T01:30:36.539Z,47
2023-03-20T01:32:36.604Z,47.1
2023-03-20T01:34:36.544Z,47.4
2023-03-20T01:36:36.547Z,47.5
2023-03-20T01:38:36.524Z,47.4
2023-03-20T01:40:36.570Z,47.3
2023-03-20T01:42:36.542Z,47.5
2023-03-20T01:44:36.584Z,47.6
2023-03-20T01:46:36.573Z,47.7
2023-03-20T01:48:36.535Z,47.8
2023-03-20T01:50:36.503Z,47.7
2023-03-20T01:52:36.527Z,49.3
2023-03-20T01:54:36.556Z,48.3
2023-03-20T01:56:36.517Z,48.3
2023-03-20T01:58:36.547Z,48.2
2023-03-20T02:00:36.498Z,48.3
2023-03-20T02:02:36.475Z,48.2
2023-03-20T02:04:36.533Z,48.2
2023-03-20T02:06:36.579Z,48.3
2023-03-20T02:08:36.480Z,48.6
2023-03-20T02:10:36.501Z,48.5
2023-03-20T02:12:36.499Z,48.6
2023-03-20T02:14:36.516Z,48.6
2023-03-20T02:16:36.529Z,48.8
2023-03-20T02:18:36.540Z,48.8
2023-03-20T02:20:36.528Z,48.7
2023-03-20T02:22:36.523Z,48.8
2023-03-20T02:24:36.449Z,48.9
2023-03-20T02:26:36.453Z,49
2023-03-20T02:28:36.481Z,49
2023-03-20T02:30:36.522Z,49.1
2023-03-20T02:32:36.477Z,49.2
2023-03-20T02:34:36.540Z,49.5
2023-03-20T02:36:36.516Z,49.6
2023-03-20T02:38:36.464Z,49.6
2023-03-20T02:40:36.442Z,50.3
2023-03-20T02:42:36.461Z,49.9
2023-03-20T02:44:36.605Z,50.4
2023-03-20T02:46:36.845Z,50.1
2023-03-20T02:48:36.504Z,50
2023-03-20T02:50:36.428Z,50.1
2023-03-20T02:52:36.414Z,50.1
2023-03-20T02:54:36.441Z,50.1
2023-03-20T02:56:36.404Z,51.1
2023-03-20T02:58:36.434Z,51.7
2023-03-20T03:00:36.440Z,51.1
2023-03-20T03:02:36.503Z,50.7
2023-03-20T03:04:36.442Z,50.6
2023-03-20T03:06:36.454Z,51.1
2023-03-20T03:08:36.426Z,51
2023-03-20T03:10:36.460Z,51.2
2023-03-20T03:12:36.404Z,51.1
2023-03-20T03:14:36.436Z,51.1
2023-03-20T03:16:36.436Z,51.2
2023-03-20T03:18:36.423Z,51.2
2023-03-20T03:20:36.411Z,52
2023-03-20T03:22:36.541Z,51.4
2023-03-20T03:24:41.109Z,51.3
2023-03-20T03:26:36.390Z,51.6
2023-03-20T03:28:36.395Z,51.5
2023-03-20T03:30:36.492Z,51.5
2023-03-20T03:32:36.540Z,51.5
2023-03-20T03:34:36.387Z,51.7
2023-03-20T03:36:36.377Z,52.2
2023-03-20T03:38:36.355Z,53.4
2023-03-20T03:40:36.363Z,52.9
2023-03-20T03:42:36.373Z,53.3
2023-03-20T03:44:36.375Z,52.6
2023-03-20T03:46:36.429Z,52.6
2023-03-20T03:48:36.353Z,52.5
2023-03-20T03:50:36.398Z,52.5
2023-03-20T03:52:36.369Z,52.6
2023-03-20T03:54:36.390Z,53.3
2023-03-20T03:56:36.359Z,53
2023-03-20T03:58:36.349Z,53.6
2023-03-20T04:00:36.323Z,53.1
2023-03-20T04:02:36.350Z,53
2023-03-20T04:04:36.429Z,52.8
2023-03-20T04:06:36.322Z,53.1
2023-03-20T04:08:36.353Z,53
2023-03-20T04:10:36.338Z,52.9
2023-03-20T04:12:36.392Z,52.9
2023-03-20T04:14:36.348Z,52.9
2023-03-20T04:16:36.400Z,53.2
2023-03-20T04:18:36.361Z,53.4
2023-03-20T04:20:36.329Z,53.1
2023-03-20T04:22:36.354Z,53.3
2023-03-20T04:24:36.304Z,53.4
2023-03-20T04:26:36.304Z,53.7
2023-03-20T04:28:36.316Z,53.7
2023-03-20T04:30:36.303Z,53.8
2023-03-20T04:32:36.316Z,53.5
2023-03-20T04:34:36.337Z,53.5
2023-03-20T04:36:36.343Z,53.8
2023-03-20T04:38:36.289Z,53.7
2023-03-20T04:40:36.270Z,53.6
2023-03-20T04:42:36.294Z,53.7
2023-03-20T04:44:36.286Z,54
2023-03-20T04:46:36.346Z,54.1
2023-03-20T04:48:36.293Z,54
2023-03-20T04:50:36.279Z,54.4
2023-03-20T04:52:36.290Z,55.3
2023-03-20T04:54:36.316Z,54.6
2023-03-20T04:56:36.306Z,55.1
2023-03-20T04:58:36.333Z,55.8
2023-03-20T05:00:36.475Z,56.4
2023-03-20T05:02:36.269Z,55.4
2023-03-20T05:04:36.292Z,54.7
2023-03-20T05:06:36.289Z,55.4
2023-03-20T05:08:36.260Z,56
2023-03-20T05:10:36.319Z,56
2023-03-20T05:12:36.265Z,56.6
2023-03-20T05:14:36.282Z,55.4
2023-03-20T05:16:36.312Z,55.2
2023-03-20T05:18:36.255Z,55.1
2023-03-20T05:20:36.276Z,55.1
2023-03-20T05:22:36.302Z,55.1
2023-03-20T05:24:36.258Z,55
2023-03-20T05:26:38.798Z,55.2
2023-03-20T05:28:36.271Z,55.7
2023-03-20T05:30:36.299Z,55.4
2023-03-20T05:32:36.355Z,55.2
2023-03-20T05:34:36.216Z,55.1
2023-03-20T05:36:36.248Z,55.3
2023-03-20T05:38:36.204Z,55.3
2023-03-20T05:40:36.191Z,55.2
2023-03-20T05:42:36.197Z,55.4
2023-03-20T05:44:36.194Z,55.4
2023-03-20T05:46:36.327Z,55.5
2023-03-20T05:48:36.197Z,55.4
2023-03-20T05:50:36.240Z,55.6
2023-03-20T05:52:36.324Z,55.4
2023-03-20T05:54:36.206Z,55.3
2023-03-20T05:56:36.229Z,55.5
2023-03-20T05:58:36.171Z,55.4
2023-03-20T06:00:36.179Z,55.5
2023-03-20T06:02:36.221Z,55.4
2023-03-20T06:04:36.169Z,55.4
2023-03-20T06:06:36.189Z,55.6
2023-03-20T06:08:36.168Z,55.5
2023-03-20T06:10:36.241Z,55.5
2023-03-20T06:12:36.198Z,55.5
2023-03-20T06:14:36.168Z,55.8
2023-03-20T06:16:36.179Z,55.7
2023-03-20T06:18:36.151Z,55.5
2023-03-20T06:20:36.173Z,55.4
2023-03-20T06:22:36.145Z,55.5
2023-03-20T06:24:36.157Z,55.5
2023-03-20T06:26:36.166Z,55.6
2023-03-20T06:28:36.157Z,55.6
2023-03-20T06:30:36.138Z,55.5
2023-03-20T06:32:36.233Z,55.5
2023-03-20T06:34:36.149Z,55.4
2023-03-20T06:36:36.129Z,55.5
2023-03-20T06:38:36.142Z,55.4
2023-03-20T06:40:36.126Z,55.7
2023-03-20T06:42:36.159Z,55.5
2023-03-20T06:44:36.128Z,55.6
2023-03-20T06:46:36.149Z,55.8
2023-03-20T06:48:36.113Z,55.9
2023-03-20T06:50:36.159Z,55.9
2023-03-20T06:52:36.128Z,56.1
2023-03-20T06:54:36.102Z,56.7
2023-03-20T06:56:36.102Z,56.1
2023-03-20T06:58:36.103Z,56
2023-03-20T07:00:36.128Z,56.1
2023-03-20T07:02:36.134Z,56.3
2023-03-20T07:04:36.237Z,56.5
2023-03-20T07:06:36.139Z,56.2
2023-03-20T07:08:36.104Z,56.8
2023-03-20T07:10:36.131Z,56.3
2023-03-20T07:12:36.126Z,57.4
2023-03-20T07:14:36.099Z,56.8
2023-03-20T07:16:36.188Z,56.4
2023-03-20T07:18:36.153Z,56.3
2023-03-20T07:20:36.118Z,56.3
2023-03-20T07:22:36.073Z,56.3
2023-03-20T07:24:36.091Z,56.2
2023-03-20T07:26:36.103Z,56.3
2023-03-20T07:28:36.109Z,56.3
2023-03-20T07:30:36.075Z,56.2
2023-03-20T07:32:37.773Z,56.5
2023-03-20T07:34:36.139Z,56.2
2023-03-20T07:36:36.094Z,56.6
2023-03-20T07:38:36.125Z,57.7
2023-03-20T07:40:36.080Z,57.8
2023-03-20T07:42:36.097Z,56.9
2023-03-20T07:44:36.105Z,56.8
2023-03-20T07:46:36.066Z,56.9
2023-03-20T07:48:36.040Z,56.8
2023-03-20T07:50:36.024Z,56.7
2023-03-20T07:52:36.058Z,57
2023-03-20T07:54:36.074Z,56.9
2023-03-20T07:56:36.055Z,57
2023-03-20T07:58:36.054Z,56.8
2023-03-20T08:00:36.031Z,57.8
2023-03-20T08:02:36.097Z,58.1
2023-03-20T08:04:36.124Z,57.3
2023-03-20T08:06:36.033Z,57.3
2023-03-20T08:08:36.059Z,57.3
2023-03-20T08:10:36.031Z,57.3
2023-03-20T08:12:36.016Z,57.2
2023-03-20T08:14:36.308Z,57.6
2023-03-20T08:16:36.061Z,57.5
2023-03-20T08:18:36.031Z,57.4
2023-03-20T08:20:36.032Z,57.3
2023-03-20T08:22:36.032Z,57.4
2023-03-20T08:24:36.030Z,57.6
2023-03-20T08:26:36.034Z,57.6
2023-03-20T08:28:46.898Z,57.8
2023-03-20T08:30:36.076Z,57.6
2023-03-20T08:32:36.061Z,57.6
2023-03-20T08:34:36.015Z,57.6
2023-03-20T08:36:36.008Z,57.7
2023-03-20T08:38:36.045Z,57.7
2023-03-20T08:40:35.984Z,57.8
2023-03-20T08:42:35.992Z,58.1
2023-03-20T08:44:35.990Z,58.3
2023-03-20T08:46:36.045Z,58.2
2023-03-20T08:48:35.958Z,58.2
2023-03-20T08:50:35.979Z,57.9
2023-03-20T08:52:36.031Z,57.9
2023-03-20T08:54:36.036Z,58.1
2023-03-20T08:56:35.944Z,58.3
2023-03-20T08:58:35.957Z,58.4
2023-03-20T09:00:35.968Z,59.2
2023-03-20T09:02:36.116Z,58.7
2023-03-20T09:04:35.958Z,58.3
2023-03-20T09:06:35.940Z,58.5
2023-03-20T09:08:35.949Z,58.4
2023-03-20T09:10:35.942Z,58.3
2023-03-20T09:12:35.966Z,58.4
2023-03-20T09:14:36.003Z,58.4
2023-03-20T09:16:35.999Z,58.6
2023-03-20T09:18:35.953Z,58.5
2023-03-20T09:20:36.181Z,58.4
2023-03-20T09:22:35.940Z,59.1
2023-03-20T09:24:35.922Z,59.3
2023-03-20T09:26:35.954Z,58.9
2023-03-20T09:28:35.925Z,58.8
2023-03-20T09:30:36.140Z,58.8
2023-03-20T09:32:35.925Z,58.9
2023-03-20T09:34:35.915Z,58.9
2023-03-20T09:36:35.920Z,59.1
2023-03-20T09:38:35.907Z,59
2023-03-20T09:40:36.122Z,59
2023-03-20T09:42:35.928Z,59.4
2023-03-20T09:44:35.886Z,60.7
2023-03-20T09:46:35.960Z,60.4
2023-03-20T09:48:35.972Z,59.7
2023-03-20T09:50:36.141Z,59.6
2023-03-20T09:52:35.905Z,59.6
2023-03-20T09:54:50.945Z,59.7
2023-03-20T09:56:35.909Z,60
2023-03-20T09:58:35.895Z,59.8
2023-03-20T10:00:36.155Z,59.8
2023-03-20T10:02:35.936Z,59.8
2023-03-20T10:04:35.891Z,59.9
2023-03-20T10:06:35.847Z,60.3
2023-03-20T10:08:35.869Z,60.2
2023-03-20T10:10:36.091Z,60.1
2023-03-20T10:12:35.863Z,60
2023-03-20T10:14:35.844Z,60.1
2023-03-20T10:16:35.963Z,60.4
2023-03-20T10:18:35.868Z,60.3
2023-03-20T10:20:36.121Z,60.3
2023-03-20T10:22:35.883Z,60.3
2023-03-20T10:24:35.848Z,60.4
2023-03-20T10:26:35.834Z,60.7
2023-03-20T10:28:35.843Z,60.7
2023-03-20T10:30:36.044Z,60.6
2023-03-20T10:32:35.947Z,60.6
2023-03-20T10:34:35.831Z,60.6
2023-03-20T10:36:35.829Z,61
2023-03-20T10:38:35.827Z,60.8
2023-03-20T10:40:35.988Z,60.7
2023-03-20T10:42:35.813Z,60.7
2023-03-20T10:44:35.820Z,60.8
2023-03-20T10:46:35.889Z,61
2023-03-20T10:48:35.816Z,60.9
2023-03-20T10:50:36.025Z,60.9
2023-03-20T10:52:35.848Z,60.8
2023-03-20T10:54:35.794Z,61
2023-03-20T10:56:35.991Z,61.3
2023-03-20T10:58:35.775Z,61.1
2023-03-20T11:00:36.025Z,61.1
2023-03-20T11:02:35.798Z,61.1
2023-03-20T11:04:35.834Z,61
2023-03-20T11:06:35.801Z,61.2
2023-03-20T11:08:35.783Z,61.3
2023-03-20T11:10:36.012Z,61.2
2023-03-20T11:12:35.787Z,61.2
2023-03-20T11:14:36.618Z,61.2
2023-03-20T11:16:35.884Z,61.4
2023-03-20T11:18:35.766Z,61.2
2023-03-20T11:20:36.108Z,61.2
2023-03-20T11:22:35.841Z,61.2
2023-03-20T11:24:35.864Z,61.1
2023-03-20T11:26:35.908Z,61.3
2023-03-20T11:28:35.786Z,61.2
2023-03-20T11:30:35.981Z,61.2
2023-03-20T11:32:35.841Z,61.1
2023-03-20T11:34:35.767Z,61.2
2023-03-20T11:36:35.778Z,61.4
2023-03-20T11:38:35.774Z,61.3
2023-03-20T11:40:35.960Z,61.2
2023-03-20T11:42:35.741Z,61.2
2023-03-20T11:44:35.784Z,61.2
2023-03-20T11:46:35.719Z,61.5
2023-03-20T11:48:35.763Z,61.4
2023-03-20T11:50:36.016Z,61.4
2023-03-20T11:52:35.736Z,61.4
2023-03-20T11:54:35.744Z,61.5
2023-03-20T11:56:35.741Z,61.7
2023-03-20T11:58:35.709Z,61.6
2023-03-20T12:00:36.060Z,61.5
2023-03-20T12:02:35.829Z,61.5
2023-03-20T12:04:35.722Z,61.5
2023-03-20T12:06:35.723Z,61.8
2023-03-20T12:08:35.745Z,61.7
2023-03-20T12:10:35.893Z,61.7
2023-03-20T12:12:35.700Z,61.7
2023-03-20T12:14:35.692Z,61.8
2023-03-20T12:16:35.703Z,61.9
2023-03-20T12:18:35.717Z,61.8
2023-03-20T12:20:35.872Z,61.8
2023-03-20T12:22:35.716Z,61.9
2023-03-20T12:24:35.687Z,61.9
2023-03-20T12:26:35.760Z,61.7
2023-03-20T12:28:35.699Z,61.7
2023-03-20T12:30:35.846Z,61.2
2023-03-20T12:32:35.793Z,60.9
2023-03-20T12:34:35.664Z,61.1
2023-03-20T12:36:35.737Z,61.2
2023-03-20T12:38:35.707Z,61.1
2023-03-20T12:40:35.825Z,60.8
2023-03-20T12:42:35.672Z,60.8
2023-03-20T12:44:35.670Z,60.7
2023-03-20T12:46:35.706Z,60.3
2023-03-20T12:48:35.744Z,60.1
2023-03-20T12:50:36.103Z,59.8
2023-03-20T12:52:35.671Z,60
2023-03-20T12:54:35.658Z,59.8
2023-03-20T12:56:35.646Z,59.1
2023-03-20T12:58:35.671Z,59.2
2023-03-20T13:00:35.971Z,58.8
2023-03-20T13:02:35.683Z,58
2023-03-20T13:04:35.631Z,58.1
2023-03-20T13:06:35.635Z,57.4
2023-03-20T13:08:35.654Z,57.4
2023-03-20T13:10:35.877Z,57.5
2023-03-20T13:12:35.659Z,57.4
2023-03-20T13:14:35.632Z,57.1
2023-03-20T13:16:35.718Z,56.5
2023-03-20T13:18:35.605Z,56.4
2023-03-20T13:20:35.870Z,54.5
2023-03-20T13:22:35.632Z,53.4
2023-03-20T13:24:35.662Z,53.9
2023-03-20T13:26:35.593Z,54.2
2023-03-20T13:28:35.649Z,54.3
2023-03-20T13:30:35.879Z,54.7
2023-03-20T13:32:35.718Z,54.5
2023-03-20T13:34:35.611Z,54.7
2023-03-20T13:36:35.639Z,54
2023-03-20T13:38:35.558Z,54
2023-03-20T13:40:35.901Z,52.7
2023-03-20T13:42:35.619Z,53.2
2023-03-20T13:44:35.569Z,51.6
2023-03-20T13:46:35.664Z,49
2023-03-20T13:48:35.582Z,48.8
2023-03-20T13:50:35.890Z,48.3
2023-03-20T13:52:35.559Z,48.5
2023-03-20T13:54:35.563Z,48.2
2023-03-20T13:56:35.629Z,47.3
2023-03-20T13:58:35.550Z,46.3
2023-03-20T14:00:35.858Z,46.4
2023-03-20T14:02:35.545Z,46.5
2023-03-20T14:04:35.722Z,46.3
2023-03-20T14:06:35.602Z,46.5
2023-03-20T14:08:35.613Z,47
2023-03-20T14:10:35.903Z,47.5
2023-03-20T14:12:35.515Z,46.5
2023-03-20T14:14:35.570Z,46.4
2023-03-20T14:16:35.552Z,45.1
2023-03-20T14:18:35.543Z,45.9
2023-03-20T14:20:35.897Z,45.4
2023-03-20T14:22:35.522Z,45.6
2023-03-20T14:24:35.546Z,44.3
2023-03-20T14:26:35.576Z,44.2
2023-03-20T14:28:35.579Z,43.1
2023-03-20T14:30:35.749Z,44.6
2023-03-20T14:32:35.581Z,43.6
2023-03-20T14:34:36.976Z,42.6
2023-03-20T14:36:35.571Z,42.8
2023-03-20T14:38:35.484Z,43.6
2023-03-20T14:40:35.877Z,43.1
2023-03-20T14:42:35.511Z,43.7
2023-03-20T14:44:35.492Z,43.9
2023-03-20T14:46:35.548Z,43.8
2023-03-20T14:48:35.502Z,46.1
2023-03-20T14:50:35.861Z,45
2023-03-20T14:52:35.505Z,42.9
2023-03-20T14:54:35.502Z,42.9
2023-03-20T14:56:35.579Z,43.1
2023-03-20T14:58:35.500Z,40.9
2023-03-20T15:00:35.699Z,40.7
2023-03-20T15:02:35.540Z,40.9
2023-03-20T15:04:35.493Z,42
2023-03-20T15:06:35.623Z,42.7
2023-03-20T15:08:35.461Z,42.4
2023-03-20T15:10:35.693Z,42.9
2023-03-20T15:12:35.460Z,44.1
2023-03-20T15:14:35.481Z,43.8
2023-03-20T15:16:35.520Z,43.3
2023-03-20T15:18:35.449Z,43.1
2023-03-20T15:20:35.709Z,44.3
2023-03-20T15:22:35.485Z,43.2
2023-03-20T15:24:35.431Z,43.9
2023-03-20T15:26:35.640Z,43.3
2023-03-20T15:28:35.473Z,43.1
2023-03-20T15:30:35.707Z,43.2
2023-03-20T15:32:35.482Z,41.7
2023-03-20T15:34:35.427Z,42.3
2023-03-20T15:36:35.432Z,42.8
2023-03-20T15:38:35.436Z,42.3
2023-03-20T15:40:49.531Z,41.5
2023-03-20T15:42:35.493Z,42.1
2023-03-20T15:44:35.456Z,41
2023-03-20T15:46:35.430Z,40.9
2023-03-20T15:48:35.445Z,41
2023-03-20T15:50:35.688Z,41.7
2023-03-20T15:52:35.460Z,42.3
2023-03-20T15:54:35.409Z,41.9
2023-03-20T15:56:35.398Z,41.9
2023-03-20T15:58:35.421Z,40.9
2023-03-20T16:00:35.680Z,40.5
2023-03-20T16:02:35.468Z,40.5
2023-03-20T16:04:35.456Z,40.5
2023-03-20T16:06:35.380Z,41
2023-03-20T16:08:35.400Z,41
2023-03-20T16:10:35.838Z,40.9
2023-03-20T16:12:35.434Z,39.2
2023-03-20T16:14:35.514Z,40
2023-03-20T16:16:35.386Z,40.8
2023-03-20T16:18:35.379Z,42
2023-03-20T16:20:35.672Z,40.2
2023-03-20T16:22:35.381Z,38.4
2023-03-20T16:24:35.394Z,38.3
2023-03-20T16:26:35.428Z,38.3
2023-03-20T16:28:35.341Z,38.8
2023-03-20T16:30:35.565Z,39
2023-03-20T16:32:35.473Z,39.6
2023-03-20T16:34:35.382Z,39.1
2023-03-20T16:36:35.361Z,39.5
2023-03-20T16:38:35.343Z,38.3
2023-03-20T16:40:35.680Z,39.1
2023-03-20T16:42:35.340Z,39.5
2023-03-20T16:44:35.367Z,38.2
2023-03-20T16:46:35.441Z,37.7
2023-03-20T16:48:35.356Z,38.6
2023-03-20T16:50:35.595Z,37.9
2023-03-20T16:52:35.319Z,39
2023-03-20T16:54:35.324Z,39
2023-03-20T16:56:35.333Z,39.1
2023-03-20T16:58:35.337Z,38
2023-03-20T17:00:35.641Z,39
2023-03-20T17:02:35.357Z,37.1
2023-03-20T17:04:35.401Z,37.7
2023-03-20T17:06:35.346Z,38.9
2023-03-20T17:08:35.313Z,38.9
2023-03-20T17:10:35.594Z,37.5
2023-03-20T17:12:35.429Z,36.4
2023-03-20T17:14:35.380Z,38.1
2023-03-20T17:16:35.348Z,37.6
2023-03-20T17:18:35.348Z,36.9
2023-03-20T17:20:35.810Z,37.4
2023-03-20T17:22:35.298Z,36.5
2023-03-20T17:24:35.317Z,35.9
2023-03-20T17:26:35.281Z,37.9
2023-03-20T17:28:35.411Z,37
2023-03-20T17:30:35.652Z,35.3
2023-03-20T17:32:35.390Z,35.8
2023-03-20T17:34:35.290Z,36
2023-03-20T17:36:35.341Z,36.1
2023-03-20T17:38:35.291Z,34.5
2023-03-20T17:40:35.626Z,35.7
2023-03-20T17:42:35.289Z,35.5
2023-03-20T17:44:35.297Z,34.6
2023-03-20T17:46:46.199Z,35.2
2023-03-20T17:48:35.274Z,34.1
2023-03-20T17:50:35.459Z,33.5
2023-03-20T17:52:35.266Z,34.4
2023-03-20T17:54:35.256Z,35
2023-03-20T17:56:35.312Z,34.3
2023-03-20T17:58:35.246Z,34
2023-03-20T18:00:35.549Z,34.4
2023-03-20T18:02:35.241Z,34
2023-03-20T18:04:35.325Z,34.6
2023-03-20T18:06:35.244Z,35.2
2023-03-20T18:08:35.242Z,35.9
2023-03-20T18:10:35.859Z,35.4
2023-03-20T18:12:35.254Z,36.4
2023-03-20T18:14:35.225Z,36.5
2023-03-20T18:16:35.206Z,36.4
2023-03-20T18:18:35.258Z,37
2023-03-20T18:20:35.535Z,35.7
2023-03-20T18:22:35.239Z,35.8
2023-03-20T18:24:35.216Z,36.2
2023-03-20T18:26:35.243Z,35.8
2023-03-20T18:28:35.234Z,35.6
2023-03-20T18:30:35.445Z,35.6
2023-03-20T18:32:35.342Z,36
2023-03-20T18:34:35.234Z,34.7
2023-03-20T18:36:35.232Z,34.1
2023-03-20T18:38:35.239Z,34.6
2023-03-20T18:40:35.654Z,34.7
2023-03-20T18:42:35.227Z,34.1
2023-03-20T18:44:35.203Z,34.2
2023-03-20T18:46:35.244Z,33.2
2023-03-20T18:48:35.210Z,32.8
2023-03-20T18:50:37.305Z,33.4
2023-03-20T18:52:35.215Z,34.1
2023-03-20T18:54:35.201Z,34.9
2023-03-20T18:56:35.193Z,34.2
2023-03-20T18:58:35.243Z,33.4
2023-03-20T19:00:35.384Z,33
2023-03-20T19:02:35.189Z,33.5
2023-03-20T19:04:35.180Z,34.5
2023-03-20T19:06:35.174Z,34.4
2023-03-20T19:08:35.165Z,34.1
2023-03-20T19:10:35.354Z,35.2
2023-03-20T19:12:35.154Z,35.3
2023-03-20T19:14:36.307Z,35.5
2023-03-20T19:16:35.431Z,36.1
2023-03-20T19:18:36.072Z,37.9
2023-03-20T19:20:35.459Z,36.4
2023-03-20T19:22:35.161Z,34.3
2023-03-20T19:24:35.160Z,35.6
2023-03-20T19:26:35.186Z,35.8
2023-03-20T19:28:40.184Z,33.8
2023-03-20T19:30:35.408Z,34.9
2023-03-20T19:32:35.194Z,34.8
2023-03-20T19:35:15.216Z,35.4
2023-03-20T19:36:35.176Z,35.7
2023-03-20T19:38:35.167Z,35.8
2023-03-20T19:40:35.284Z,35.7
2023-03-20T19:43:00.001Z,35.5
2023-03-20T19:44:35.095Z,35.3
2023-03-20T19:46:39.968Z,36
2023-03-20T19:48:49.937Z,34.9
2023-03-20T19:50:35.121Z,34.9
2023-03-20T19:52:35.154Z,36.2
2023-03-20T19:54:35.124Z,36.1
2023-03-20T19:56:35.103Z,34.6
2023-03-20T19:58:35.161Z,33.8
2023-03-20T20:00:57.932Z,33.6
2023-03-20T20:02:35.251Z,34.1
2023-03-20T20:04:35.133Z,33.3
2023-03-20T20:06:35.116Z,33.7
2023-03-20T20:08:46.781Z,33.4
2023-03-20T20:10:35.433Z,34.4
2023-03-20T20:12:35.101Z,34.7
2023-03-20T20:14:35.329Z,34.8
2023-03-20T20:16:35.329Z,34
2023-03-20T20:18:35.062Z,34.3
2023-03-20T20:20:35.257Z,34.8
2023-03-20T20:22:35.062Z,34.4
2023-03-20T20:24:35.057Z,34.4
2023-03-20T20:26:39.557Z,34
2023-03-20T20:28:35.069Z,34.8
2023-03-20T20:30:35.494Z,35.5
2023-03-20T20:32:35.781Z,35.1
2023-03-20T20:37:20.987Z,35.6
2023-03-20T20:38:50.334Z,35.6
2023-03-20T20:40:35.061Z,35.4
2023-03-20T20:42:35.066Z,36
2023-03-20T20:44:35.036Z,35.7
2023-03-20T20:46:35.092Z,35.9
2023-03-20T20:48:35.071Z,35
2023-03-20T20:50:35.041Z,35.5
2023-03-20T20:52:35.040Z,35.1
2023-03-20T20:54:35.061Z,35.4
2023-03-20T20:56:35.038Z,35.5
2023-03-20T20:58:35.057Z,35.7
2023-03-20T21:00:48.904Z,35.5
2023-03-20T21:02:35.078Z,35.6
2023-03-20T21:04:35.077Z,35.9
2023-03-20T21:07:03.707Z,35.2
2023-03-20T21:08:35.075Z,34.9
2023-03-20T21:10:35.009Z,35.3
2023-03-20T21:12:40.312Z,35.6
2023-03-20T21:14:35.010Z,35.4
2023-03-20T21:16:35.058Z,35.7
2023-03-20T21:18:35.015Z,36.1
2023-03-20T21:20:34.988Z,36.5
2023-03-20T21:22:34.996Z,36.3
2023-03-20T21:24:35.216Z,36
2023-03-20T21:26:34.993Z,34.8
2023-03-20T21:28:34.997Z,33.7
2023-03-20T21:30:35.054Z,34
2023-03-20T21:32:35.071Z,34.7
2023-03-20T21:34:34.987Z,35
2023-03-20T21:36:35.227Z,34.7
2023-03-20T21:39:05.717Z,35.1
2023-03-20T21:40:34.978Z,35.4
2023-03-20T21:42:34.966Z,35.5
2023-03-20T21:45:13.228Z,35.4
2023-03-20T21:49:16.215Z,34.3
2023-03-20T21:51:03.464Z,33.7
2023-03-20T21:53:34.790Z,34.2
2023-03-20T21:55:21.536Z,34.6
2023-03-20T21:57:10.461Z,34.2
2023-03-20T21:59:38.630Z,34.3
2023-03-20T22:02:36.084Z,33.9
2023-03-20T22:05:22.120Z,34.1
2023-03-20T22:08:00.934Z,34.2
2023-03-20T22:21:29.959Z,34.1
2023-03-20T22:23:21.230Z,34.3
2023-03-20T22:25:16.506Z,34.2
2023-03-20T22:27:40.436Z,34.4
2023-03-20T22:29:21.122Z,34.7
2023-03-20T22:31:26.480Z,34.7
2023-03-20T22:33:11.474Z,34.4
2023-03-20T22:35:31.307Z,34.3
2023-03-20T22:39:10.702Z,34.7
2023-03-20T22:43:05.775Z,34.5
2023-03-20T22:44:58.820Z,35.2
2023-03-20T22:46:45.115Z,35.5
2023-03-20T22:48:34.938Z,35.4
2023-03-20T22:50:35.117Z,35.5
2023-03-20T22:52:47.974Z,35.5
2023-03-20T22:54:34.896Z,35.8
2023-03-20T22:56:34.943Z,35.9
2023-03-20T22:58:34.897Z,35.9
2023-03-20T23:00:36.721Z,36.2
2023-03-20T23:02:34.874Z,36.3
2023-03-20T23:04:36.709Z,36.4
2023-03-20T23:06:34.907Z,36.6
2023-03-20T23:08:39.254Z,36.7
2023-03-20T23:10:35.201Z,37.1
2023-03-20T23:12:34.911Z,37.3
2023-03-20T23:14:45.257Z,37.5
2023-03-20T23:16:34.954Z,37.7
2023-03-20T23:18:34.849Z,37.7
2023-03-20T23:20:35.126Z,37.8
2023-03-20T23:22:34.855Z,38
2023-03-20T23:24:34.840Z,38.1
2023-03-20T23:26:34.851Z,38.3
2023-03-20T23:28:34.865Z,38.4
2023-03-20T23:30:44.145Z,38.7
2023-03-20T23:32:34.859Z,38.8
2023-03-20T23:34:34.849Z,38.9
2023-03-20T23:36:37.113Z,39.1
2023-03-20T23:38:34.849Z,39.2
2023-03-20T23:40:35.086Z,39.3
2023-03-20T23:42:34.828Z,39.4
2023-03-20T23:44:34.989Z,39.6
2023-03-20T23:46:34.840Z,39.7
2023-03-20T23:48:34.907Z,39.8
2023-03-20T23:50:49.891Z,40
2023-03-20T23:52:35.133Z,40
2023-03-20T23:54:34.809Z,40.1
2023-03-20T23:56:34.830Z,40.1
2023-03-20T23:58:36.056Z,40.3
